Time;durP1;ratioP1;P1;durP2;ratioP2;P2;SDS_P1;SDS_P2;PMS_P1;PMS_P2;Temp;Humidity;BMP_temperature;BMP_pressure;BME280_temperature;BME280_humidity;BME280_pressure;Samples;Min_cycle;Max_cycle;Signal;HPM_P1;HPM_P2
2021/03/06 00:01:18;;;;;;;17.70;15.00;;;-0.10;99.90;;;;;;5030681;28;20450;-80
2021/03/06 00:03:44;;;;;;;14.77;13.37;;;-0.10;99.90;;;;;;5040109;28;20458;-79
2021/03/06 00:06:12;;;;;;;16.63;14.93;;;-0.10;99.90;;;;;;5041865;28;20927;-80
2021/03/06 00:08:38;;;;;;;16.63;14.80;;;-0.10;99.90;;;;;;5027297;28;20824;-80
2021/03/06 00:11:05;;;;;;;15.67;14.03;;;-0.10;99.90;;;;;;5040796;28;20439;-80
2021/03/06 00:13:34;;;;;;;16.03;14.33;;;-0.10;99.90;;;;;;5029250;28;20487;-81
2021/03/06 00:16:01;;;;;;;15.83;14.13;;;-0.20;99.90;;;;;;5019297;28;20459;-80
2021/03/06 00:18:27;;;;;;;15.70;14.10;;;-0.20;99.90;;;;;;5048889;28;20431;-79
2021/03/06 00:20:53;;;;;;;15.60;14.00;;;-0.20;99.90;;;;;;5043272;28;20443;-80
2021/03/06 00:23:24;;;;;;;13.93;12.63;;;-0.20;99.90;;;;;;5025248;28;20467;-79
2021/03/06 00:25:50;;;;;;;14.57;12.83;;;-0.20;99.90;;;;;;5037235;28;20450;-80
2021/03/06 00:28:17;;;;;;;14.10;12.83;;;-0.30;99.90;;;;;;5025064;28;20947;-80
2021/03/06 00:30:44;;;;;;;13.70;12.40;;;-0.30;99.90;;;;;;5042899;28;20449;-80
2021/03/06 00:33:14;;;;;;;14.83;13.33;;;-0.30;99.90;;;;;;5044392;28;20561;-80
2021/03/06 00:35:40;;;;;;;12.73;11.63;;;-0.30;99.90;;;;;;5029962;28;20450;-78
2021/03/06 00:38:07;;;;;;;14.10;12.63;;;-0.30;99.90;;;;;;5046121;28;20819;-80
2021/03/06 00:40:34;;;;;;;13.40;12.10;;;-0.40;99.90;;;;;;5048173;28;20915;-80
2021/03/06 00:43:00;;;;;;;14.63;13.23;;;-0.40;99.90;;;;;;5046962;28;20465;-80
2021/03/06 00:45:30;;;;;;;14.37;12.87;;;-0.50;99.90;;;;;;5009325;28;20457;-80
2021/03/06 00:47:57;;;;;;;14.07;12.77;;;-0.40;99.90;;;;;;5046507;28;20450;-80
2021/03/06 00:50:29;;;;;;;15.10;13.63;;;-0.50;99.90;;;;;;5027456;28;20443;-79
2021/03/06 00:52:55;;;;;;;13.77;12.53;;;-0.50;99.90;;;;;;5047240;28;20481;-80
2021/03/06 00:55:25;;;;;;;14.27;12.77;;;-0.50;99.90;;;;;;5044273;28;20438;-80
2021/03/06 00:57:54;;;;;;;14.40;13.10;;;-0.50;99.90;;;;;;5046514;28;20450;-80
2021/03/06 01:00:22;;;;;;;15.30;13.83;;;-0.60;99.90;;;;;;5028813;28;20461;-80
2021/03/06 01:02:48;;;;;;;14.43;13.00;;;-0.60;99.90;;;;;;5045941;28;20496;-80
2021/03/06 01:05:15;;;;;;;14.37;13.00;;;-0.60;99.90;;;;;;5027301;28;20977;-79
2021/03/06 01:07:42;;;;;;;14.07;12.77;;;-0.60;99.90;;;;;;5028827;28;20450;-79
2021/03/06 01:10:11;;;;;;;15.50;13.77;;;-0.70;99.90;;;;;;5045619;28;20446;-80
2021/03/06 01:12:38;;;;;;;14.20;12.80;;;-0.70;99.90;;;;;;5038916;28;20482;-80
2021/03/06 01:15:06;;;;;;;14.57;13.23;;;-0.80;99.90;;;;;;5029126;28;20450;-80
2021/03/06 01:17:33;;;;;;;14.17;12.80;;;-0.70;99.90;;;;;;5029581;28;20446;-80
2021/03/06 01:19:59;;;;;;;13.93;12.63;;;-0.80;99.90;;;;;;5029143;28;20453;-80
2021/03/06 01:22:26;;;;;;;14.77;13.37;;;-0.70;99.90;;;;;;5043781;28;21179;-79
2021/03/06 01:24:52;;;;;;;13.87;12.57;;;-0.70;99.90;;;;;;5029831;28;20450;-80
2021/03/06 01:27:20;;;;;;;13.97;12.57;;;-0.70;99.90;;;;;;5037442;28;20462;-80
2021/03/06 01:29:52;;;;;;;14.10;12.70;;;-0.80;99.90;;;;;;5027352;28;20525;-80
2021/03/06 01:32:20;;;;;;;14.40;13.00;;;-0.90;99.90;;;;;;5033308;28;20481;-79
2021/03/06 01:34:46;;;;;;;13.80;12.40;;;-0.90;99.90;;;;;;5025121;28;20450;-79
2021/03/06 01:37:12;;;;;;;12.87;11.73;;;-0.90;99.90;;;;;;5043542;28;20962;-80
2021/03/06 01:39:39;;;;;;;13.87;12.40;;;-0.90;99.90;;;;;;5043309;28;20501;-80
2021/03/06 01:42:07;;;;;;;12.73;11.53;;;-0.90;99.90;;;;;;5026075;28;20470;-80
2021/03/06 01:44:33;;;;;;;14.23;12.90;;;-0.90;99.90;;;;;;5030850;28;20447;-80
2021/03/06 01:46:59;;;;;;;13.43;12.23;;;-0.90;99.90;;;;;;5041421;28;20438;-79
2021/03/06 01:49:27;;;;;;;14.17;12.87;;;-0.90;99.90;;;;;;5043597;28;20453;-80
2021/03/06 01:51:54;;;;;;;13.63;12.33;;;-0.90;99.90;;;;;;5042917;28;20478;-79
2021/03/06 01:54:22;;;;;;;13.13;12.03;;;-0.90;99.90;;;;;;5044115;28;20469;-79
2021/03/06 01:56:49;;;;;;;12.70;11.63;;;-1.00;99.90;;;;;;5045541;28;20457;-80
2021/03/06 01:59:15;;;;;;;13.70;12.40;;;-1.10;99.90;;;;;;5025887;28;20855;-79
2021/03/06 02:01:42;;;;;;;12.93;11.73;;;-1.10;99.90;;;;;;5047369;28;20445;-79
2021/03/06 02:04:09;;;;;;;12.57;11.50;;;-1.10;99.90;;;;;;5043569;28;20473;-80
2021/03/06 02:06:36;;;;;;;12.37;11.33;;;-1.10;99.90;;;;;;5039888;28;20472;-79
2021/03/06 02:09:03;;;;;;;12.57;11.43;;;-1.10;99.90;;;;;;5020231;28;20435;-79
2021/03/06 02:11:41;;;;;;;13.20;11.87;;;-1.20;99.90;;;;;;5041027;28;20448;-79
2021/03/06 02:14:35;;;;;;;12.40;11.30;;;-1.10;99.90;;;;;;5024509;28;20435;-79
2021/03/06 02:17:07;;;;;;;12.77;11.67;;;-1.10;99.90;;;;;;5033656;28;20514;-79
2021/03/06 02:19:55;;;;;;;12.93;11.93;;;-1.10;99.90;;;;;;5034209;28;20474;-79
2021/03/06 02:22:40;;;;;;;12.47;11.47;;;-1.10;99.90;;;;;;5004178;28;20501;-79
2021/03/06 02:25:28;;;;;;;13.10;11.80;;;-1.10;99.90;;;;;;5038581;28;20434;-79
2021/03/06 02:28:03;;;;;;;12.63;11.43;;;-1.10;99.90;;;;;;5019328;28;20454;-79
2021/03/06 02:30:32;;;;;;;12.83;11.73;;;-1.10;99.90;;;;;;5041219;28;20480;-79
2021/03/06 02:33:01;;;;;;;12.73;11.63;;;-1.20;99.90;;;;;;5041848;28;20489;-79
2021/03/06 02:35:32;;;;;;;12.47;11.33;;;-1.20;99.90;;;;;;5014630;28;20496;-79
2021/03/06 02:38:10;;;;;;;13.23;11.93;;;-1.20;99.90;;;;;;5032949;28;20434;-79
2021/03/06 02:40:38;;;;;;;13.10;11.90;;;-1.20;99.90;;;;;;5041345;28;20449;-79
2021/03/06 02:43:05;;;;;;;12.00;10.90;;;-1.10;99.90;;;;;;5040998;28;20451;-78
2021/03/06 02:45:33;;;;;;;12.50;11.30;;;-1.30;99.90;;;;;;5040691;28;20450;-79
2021/03/06 02:47:59;;;;;;;12.77;11.67;;;-1.30;99.90;;;;;;5023294;28;20506;-79
2021/03/06 02:50:25;;;;;;;12.23;11.23;;;-1.40;99.90;;;;;;5041831;28;20485;-79
2021/03/06 02:52:52;;;;;;;12.43;11.40;;;-1.50;99.90;;;;;;5023071;28;20479;-80
2021/03/06 02:55:18;;;;;;;12.50;11.43;;;-1.50;99.90;;;;;;5043020;28;20438;-79
2021/03/06 02:58:17;;;;;;;12.57;11.57;;;-1.50;99.90;;;;;;5037320;28;20453;-79
2021/03/06 03:00:48;;;;;;;12.00;11.00;;;-1.40;99.90;;;;;;5035131;28;20502;-80
2021/03/06 03:03:23;;;;;;;12.90;11.80;;;-1.50;99.90;;;;;;5039151;28;20463;-79
2021/03/06 03:05:56;;;;;;;13.10;12.03;;;-1.60;99.90;;;;;;5051206;28;20452;-79
2021/03/06 03:08:28;;;;;;;13.43;12.13;;;-1.60;99.90;;;;;;5042621;28;20454;-80
2021/03/06 03:11:02;;;;;;;13.90;12.70;;;-1.70;99.90;;;;;;5032421;28;20443;-80
2021/03/06 03:13:36;;;;;;;13.00;11.67;;;-1.70;99.90;;;;;;5028813;28;20477;-79
2021/03/06 03:16:09;;;;;;;13.50;12.40;;;-1.80;99.90;;;;;;5031905;28;20435;-79
2021/03/06 03:18:40;;;;;;;13.90;12.70;;;-1.80;99.90;;;;;;5033330;28;20874;-79
2021/03/06 03:21:12;;;;;;;13.30;12.20;;;-1.90;99.90;;;;;;5023095;28;20440;-79
2021/03/06 03:23:42;;;;;;;13.40;12.20;;;-1.80;99.90;;;;;;5015787;28;20470;-79
2021/03/06 03:26:12;;;;;;;13.23;12.03;;;-1.80;99.90;;;;;;5022504;28;20446;-79
2021/03/06 03:28:44;;;;;;;14.63;13.13;;;-1.90;99.90;;;;;;5032113;28;20445;-80
2021/03/06 03:31:12;;;;;;;14.30;13.10;;;-1.90;99.90;;;;;;5038817;28;20456;-79
2021/03/06 03:33:42;;;;;;;13.53;12.33;;;-1.90;99.90;;;;;;5022098;28;20565;-78
2021/03/06 03:36:09;;;;;;;13.20;12.17;;;-1.90;99.90;;;;;;5040569;28;20427;-79
2021/03/06 03:38:36;;;;;;;13.57;12.37;;;-1.90;99.90;;;;;;5038624;28;20484;-79
2021/03/06 03:41:04;;;;;;;12.53;11.53;;;-1.90;99.90;;;;;;5039760;28;20802;-79
2021/03/06 03:43:31;;;;;;;14.10;12.70;;;-2.00;99.90;;;;;;5036884;28;20490;-80
2021/03/06 03:45:58;;;;;;;12.80;11.63;;;-1.90;99.90;;;;;;5037926;28;20444;-80
2021/03/06 03:48:25;;;;;;;13.10;12.00;;;-1.90;99.90;;;;;;5023804;28;20454;-79
2021/03/06 03:50:52;;;;;;;13.67;12.40;;;-2.00;99.90;;;;;;5022996;28;20944;-81
2021/03/06 03:53:18;;;;;;;12.67;11.67;;;-1.90;99.90;;;;;;5037047;28;20842;-79
2021/03/06 03:55:45;;;;;;;12.53;11.60;;;-1.90;99.90;;;;;;5035197;28;20944;-79
2021/03/06 03:58:11;;;;;;;13.10;11.90;;;-2.00;99.90;;;;;;5023993;28;20976;-80
2021/03/06 04:00:38;;;;;;;14.07;12.80;;;-2.00;99.90;;;;;;5018201;28;20483;-78
2021/03/06 04:03:06;;;;;;;11.97;11.07;;;-1.90;99.90;;;;;;5034519;28;20481;-78
2021/03/06 04:05:33;;;;;;;13.07;12.07;;;-2.00;99.90;;;;;;5035820;28;20464;-78
2021/03/06 04:08:00;;;;;;;12.70;11.60;;;-2.00;99.90;;;;;;5006414;28;20455;-78
2021/03/06 04:10:28;;;;;;;12.13;11.17;;;-2.00;99.90;;;;;;5033667;28;20462;-78
2021/03/06 04:12:55;;;;;;;12.93;11.87;;;-2.10;99.90;;;;;;5035620;28;20470;-78
2021/03/06 04:15:24;;;;;;;13.20;12.10;;;-2.00;99.90;;;;;;5022822;28;20468;-78
2021/03/06 04:17:51;;;;;;;12.90;11.80;;;-2.10;99.90;;;;;;5043849;28;20453;-79
2021/03/06 04:20:19;;;;;;;12.17;11.07;;;-2.10;99.90;;;;;;5021844;28;20462;-78
2021/03/06 04:22:47;;;;;;;12.70;11.70;;;-2.10;99.90;;;;;;5017346;28;21018;-78
2021/03/06 04:25:13;;;;;;;12.73;11.73;;;-2.20;99.90;;;;;;5039677;28;20442;-77
2021/03/06 04:27:40;;;;;;;12.37;11.27;;;-2.10;99.90;;;;;;5038266;28;20744;-78
2021/03/06 04:30:08;;;;;;;12.37;11.27;;;-2.10;99.90;;;;;;5039439;28;20444;-78
2021/03/06 04:32:35;;;;;;;12.80;11.70;;;-2.20;99.90;;;;;;5039992;28;20531;-77
2021/03/06 04:35:02;;;;;;;12.10;11.03;;;-2.10;99.90;;;;;;5032230;28;20454;-78
2021/03/06 04:37:28;;;;;;;13.47;12.37;;;-2.10;99.90;;;;;;5028249;28;20443;-78
2021/03/06 04:39:56;;;;;;;12.67;11.57;;;-2.10;99.90;;;;;;5022801;28;20877;-78
2021/03/06 04:42:22;;;;;;;13.60;12.40;;;-2.10;99.90;;;;;;5030227;28;20463;-78
2021/03/06 04:44:48;;;;;;;13.43;12.23;;;-2.10;99.90;;;;;;5026772;28;20436;-78
2021/03/06 04:47:15;;;;;;;13.90;12.60;;;-2.10;99.90;;;;;;5026744;28;20882;-77
2021/03/06 04:49:44;;;;;;;13.70;12.50;;;-2.20;99.90;;;;;;5025261;28;20462;-78
2021/03/06 04:52:13;;;;;;;12.63;11.50;;;-2.20;99.90;;;;;;5006618;28;20842;-78
2021/03/06 04:54:39;;;;;;;13.30;12.20;;;-2.20;99.90;;;;;;5027867;28;20433;-78
2021/03/06 04:57:07;;;;;;;13.63;12.43;;;-2.20;99.90;;;;;;5028085;28;20435;-77
2021/03/06 04:59:33;;;;;;;13.33;12.13;;;-2.20;99.90;;;;;;5028528;28;20441;-78
2021/03/06 05:01:59;;;;;;;14.10;12.50;;;-2.30;99.90;;;;;;5026180;28;21084;-78
2021/03/06 05:04:26;;;;;;;12.97;11.77;;;-2.30;99.90;;;;;;5026748;28;20434;-76
2021/03/06 05:06:53;;;;;;;12.27;11.27;;;-2.30;99.90;;;;;;5012076;28;20455;-78
2021/03/06 05:09:19;;;;;;;13.20;11.97;;;-2.40;99.90;;;;;;5035791;28;20450;-80
2021/03/06 05:11:45;;;;;;;13.07;11.93;;;-2.40;99.90;;;;;;5026268;28;20453;-80
2021/03/06 05:14:12;;;;;;;13.43;12.13;;;-2.40;99.90;;;;;;5042386;28;21013;-80
2021/03/06 05:16:39;;;;;;;13.10;11.97;;;-2.50;99.90;;;;;;5045099;28;20450;-77
2021/03/06 05:19:05;;;;;;;13.40;12.13;;;-2.50;99.90;;;;;;5043505;28;20434;-80
2021/03/06 05:21:31;;;;;;;13.33;12.23;;;-2.50;99.90;;;;;;5026038;28;20449;-79
2021/03/06 05:23:58;;;;;;;13.33;12.33;;;-2.40;99.90;;;;;;5037837;28;20466;-76
2021/03/06 05:26:24;;;;;;;12.83;11.73;;;-2.50;99.90;;;;;;5041873;28;20462;-77
2021/03/06 05:28:50;;;;;;;12.80;11.63;;;-2.50;99.90;;;;;;5039881;28;20452;-78
2021/03/06 05:31:17;;;;;;;13.60;12.33;;;-2.50;99.90;;;;;;5046375;28;20441;-76
2021/03/06 05:33:44;;;;;;;13.90;12.60;;;-2.50;99.90;;;;;;5046209;28;20787;-79
2021/03/06 05:36:10;;;;;;;12.10;11.10;;;-2.50;99.90;;;;;;5050265;28;20433;-81
2021/03/06 05:38:36;;;;;;;13.07;11.97;;;-2.60;99.90;;;;;;5042346;28;20450;-77
2021/03/06 05:41:03;;;;;;;13.90;12.43;;;-2.70;99.90;;;;;;5046992;28;20461;-77
2021/03/06 05:43:30;;;;;;;13.20;11.83;;;-2.50;99.90;;;;;;5044286;28;20459;-77
2021/03/06 05:45:56;;;;;;;13.33;12.27;;;-2.60;99.90;;;;;;5019369;28;20813;-78
2021/03/06 05:48:24;;;;;;;13.90;12.60;;;-2.60;99.90;;;;;;5047361;28;20945;-78
2021/03/06 05:50:51;;;;;;;13.47;12.27;;;-2.50;99.90;;;;;;5037018;28;20424;-78
2021/03/06 05:53:24;;;;;;;13.03;12.00;;;-2.60;99.90;;;;;;5044476;28;20476;-78
2021/03/06 05:55:54;;;;;;;13.03;11.97;;;-2.60;99.90;;;;;;5042859;28;20447;-77
2021/03/06 05:58:22;;;;;;;13.70;12.50;;;-2.50;99.90;;;;;;5028000;28;20462;-77
2021/03/06 06:00:48;;;;;;;12.83;11.73;;;-2.50;99.90;;;;;;5027904;28;20847;-77
2021/03/06 06:03:17;;;;;;;13.37;12.27;;;-2.60;99.90;;;;;;5043930;28;20476;-76
2021/03/06 06:05:45;;;;;;;13.50;12.27;;;-2.50;99.90;;;;;;5027231;28;20446;-76
2021/03/06 06:08:12;;;;;;;13.57;12.20;;;-2.50;99.90;;;;;;5042803;28;20949;-77
2021/03/06 06:10:39;;;;;;;13.33;12.23;;;-2.50;99.90;;;;;;5044265;28;20972;-77
2021/03/06 06:13:05;;;;;;;14.00;12.80;;;-2.40;99.90;;;;;;5026369;28;21119;-77
2021/03/06 06:15:31;;;;;;;13.53;12.33;;;-2.40;99.90;;;;;;5025037;28;20529;-76
2021/03/06 06:17:58;;;;;;;13.90;12.70;;;-2.30;99.90;;;;;;5045060;28;20455;-78
2021/03/06 06:20:25;;;;;;;13.47;12.37;;;-2.30;99.90;;;;;;5025287;28;20459;-78
2021/03/06 06:23:11;;;;;;;14.47;13.07;;;-2.20;99.90;;;;;;5028365;28;20844;-77
2021/03/06 06:25:38;;;;;;;14.40;13.00;;;-2.20;99.90;;;;;;5038452;28;20435;-77
2021/03/06 06:28:05;;;;;;;13.60;12.13;;;-2.20;99.90;;;;;;5038347;28;21117;-78
2021/03/06 06:30:32;;;;;;;13.30;12.10;;;-2.10;99.90;;;;;;5035894;28;20456;-78
2021/03/06 06:32:59;;;;;;;13.47;12.27;;;-2.10;99.90;;;;;;5036788;28;20487;-78
2021/03/06 06:35:25;;;;;;;13.33;12.00;;;-2.10;99.90;;;;;;5035574;28;20475;-78
2021/03/06 06:37:57;;;;;;;14.43;13.20;;;-1.90;99.90;;;;;;5034939;28;20450;-78
2021/03/06 06:40:28;;;;;;;14.63;13.23;;;-1.50;99.90;;;;;;5038289;28;20963;-78
2021/03/06 06:42:55;;;;;;;12.80;11.70;;;-1.10;99.90;;;;;;5024841;28;20842;-78
2021/03/06 06:45:23;;;;;;;14.20;12.77;;;-0.80;99.90;;;;;;5015850;28;20455;-78
2021/03/06 06:47:51;;;;;;;13.17;12.07;;;-0.50;99.90;;;;;;5020806;28;20450;-79
2021/03/06 06:50:29;;;;;;;13.40;12.30;;;-0.30;99.90;;;;;;5037801;28;20959;-79
2021/03/06 06:52:55;;;;;;;12.67;11.67;;;-0.10;99.90;;;;;;5040439;28;20872;-78
2021/03/06 06:55:33;;;;;;;12.70;11.57;;;0.00;99.90;;;;;;5047587;28;20471;-79
2021/03/06 06:58:00;;;;;;;13.00;12.00;;;0.20;99.90;;;;;;5040196;28;20512;-78
2021/03/06 07:00:29;;;;;;;12.77;11.77;;;0.40;99.90;;;;;;5030945;28;20470;-79
2021/03/06 07:02:56;;;;;;;12.43;11.43;;;0.60;99.90;;;;;;5022676;28;20467;-79
2021/03/06 07:05:27;;;;;;;12.90;11.80;;;0.70;99.90;;;;;;5046674;28;20438;-80
2021/03/06 07:07:54;;;;;;;12.73;11.63;;;0.70;99.90;;;;;;5030514;28;20447;-79
2021/03/06 07:10:21;;;;;;;12.73;11.63;;;0.80;99.90;;;;;;5032148;28;20454;-80
2021/03/06 07:12:56;;;;;;;12.67;11.60;;;1.00;99.90;;;;;;5027848;28;20470;-80
2021/03/06 07:15:25;;;;;;;13.23;12.03;;;1.20;99.90;;;;;;5023927;28;20489;-80
2021/03/06 07:17:53;;;;;;;13.13;12.03;;;1.50;99.90;;;;;;5044540;28;20450;-79
2021/03/06 07:20:37;;;;;;;12.23;11.23;;;1.80;99.90;;;;;;5040714;28;20442;-79
2021/03/06 07:23:15;;;;;;;12.43;11.37;;;2.10;99.90;;;;;;5036086;28;20469;-79
2021/03/06 07:25:42;;;;;;;13.17;12.00;;;2.30;99.90;;;;;;5019823;28;20943;-80
2021/03/06 07:28:08;;;;;;;12.20;11.10;;;2.60;99.90;;;;;;5006001;28;20452;-79
2021/03/06 07:30:36;;;;;;;12.10;11.00;;;3.00;99.90;;;;;;5005977;28;20455;-79
2021/03/06 07:33:05;;;;;;;11.07;10.07;;;3.10;99.90;;;;;;5022041;28;20478;-78
2021/03/06 07:35:36;;;;;;;11.30;10.50;;;3.30;99.90;;;;;;5020662;28;20472;-79
2021/03/06 07:38:05;;;;;;;13.00;12.00;;;3.20;99.90;;;;;;5025283;28;20454;-78
2021/03/06 07:40:33;;;;;;;12.57;11.50;;;3.20;99.90;;;;;;5031971;28;20960;-79
2021/03/06 07:43:01;;;;;;;13.87;12.77;;;2.90;99.90;;;;;;5031723;28;20474;-78
2021/03/06 07:45:29;;;;;;;12.17;11.07;;;3.00;99.90;;;;;;5038545;28;20438;-78
2021/03/06 07:48:05;;;;;;;11.87;10.77;;;3.20;99.90;;;;;;5038156;28;20445;-79
2021/03/06 07:50:32;;;;;;;12.77;11.67;;;3.50;99.90;;;;;;5037236;28;20478;-79
2021/03/06 07:53:00;;;;;;;12.43;11.33;;;3.70;99.90;;;;;;5044524;28;20508;-80
2021/03/06 07:55:29;;;;;;;13.03;12.03;;;4.10;99.90;;;;;;5030769;28;20446;-79
2021/03/06 07:58:00;;;;;;;12.43;11.50;;;4.40;99.90;;;;;;5027385;28;20195;-80
2021/03/06 08:00:38;;;;;;;12.13;11.20;;;4.90;99.90;;;;;;5039443;28;20231;-79
2021/03/06 08:03:35;;;;;;;11.03;10.17;;;5.20;99.90;;;;;;5042457;28;20211;-79
2021/03/06 08:06:03;;;;;;;12.23;11.20;;;5.30;99.90;;;;;;5028461;28;20197;-79
2021/03/06 08:09:09;;;;;;;12.67;11.67;;;5.10;99.90;;;;;;5027629;28;20584;-80
2021/03/06 08:11:44;;;;;;;12.67;11.57;;;5.40;99.90;;;;;;5029154;28;20192;-81
2021/03/06 08:14:30;;;;;;;11.50;10.40;;;5.60;99.90;;;;;;5034568;28;20577;-79
2021/03/06 08:16:57;;;;;;;13.20;12.00;;;5.90;99.90;;;;;;5042547;28;20200;-81
2021/03/06 08:19:30;;;;;;;12.37;11.27;;;6.00;99.90;;;;;;5039667;28;20243;-80
2021/03/06 08:22:16;;;;;;;13.93;12.57;;;6.00;99.90;;;;;;5039282;28;20206;-78
2021/03/06 08:24:43;;;;;;;13.67;12.30;;;6.40;99.90;;;;;;5035239;28;20600;-81
2021/03/06 08:27:27;;;;;;;12.40;11.23;;;6.50;99.90;;;;;;5044221;28;20203;-80
2021/03/06 08:29:56;;;;;;;13.00;11.90;;;6.40;99.90;;;;;;5036905;28;20207;-80
2021/03/06 08:32:34;;;;;;;12.70;11.53;;;6.50;99.90;;;;;;5049444;28;20221;-82
2021/03/06 08:35:18;;;;;;;13.40;12.40;;;6.40;99.90;;;;;;5025911;28;20291;-81
2021/03/06 08:37:45;;;;;;;13.50;12.30;;;6.50;99.90;;;;;;5035376;28;20683;-83
2021/03/06 08:40:17;;;;;;;13.13;12.03;;;6.60;99.90;;;;;;5026662;28;20196;-81
2021/03/06 08:42:46;;;;;;;12.97;11.87;;;6.70;99.90;;;;;;5030415;28;20227;-82
2021/03/06 08:45:24;;;;;;;13.43;12.13;;;6.90;99.90;;;;;;5042086;28;20339;-81
2021/03/06 08:47:57;;;;;;;13.23;12.13;;;6.70;99.90;;;;;;5044120;28;20578;-80
2021/03/06 08:50:25;;;;;;;13.00;11.90;;;6.60;99.90;;;;;;5043658;28;20589;-78
2021/03/06 08:52:56;;;;;;;13.07;11.87;;;6.80;99.90;;;;;;5034311;28;20209;-79
2021/03/06 08:55:25;;;;;;;12.53;11.43;;;6.50;99.90;;;;;;5033187;28;20209;-76
2021/03/06 08:57:51;;;;;;;12.97;11.77;;;6.80;99.90;;;;;;5035107;28;20197;-79
2021/03/06 09:00:22;;;;;;;13.73;12.53;;;7.10;99.90;;;;;;5047605;28;20205;-77
2021/03/06 09:02:49;;;;;;;13.90;12.70;;;7.30;99.90;;;;;;5032381;28;20210;-77
2021/03/06 09:05:18;;;;;;;13.87;12.57;;;7.60;99.90;;;;;;5019656;28;20694;-77
2021/03/06 09:07:47;;;;;;;13.60;12.40;;;7.50;99.90;;;;;;5015627;28;20206;-82
2021/03/06 09:10:26;;;;;;;13.93;12.73;;;7.50;99.90;;;;;;5041316;28;20198;-82
2021/03/06 09:12:55;;;;;;;13.37;12.17;;;7.50;99.90;;;;;;5038961;28;20226;-81
2021/03/06 09:15:30;;;;;;;13.27;12.10;;;7.70;99.90;;;;;;5019967;28;20678;-80
2021/03/06 09:17:58;;;;;;;13.10;12.00;;;8.10;99.90;;;;;;5033975;28;20294;-81
2021/03/06 09:20:25;;;;;;;12.43;11.43;;;8.00;99.90;;;;;;5028364;28;20211;-82
2021/03/06 09:22:52;;;;;;;11.93;11.03;;;7.90;99.90;;;;;;5043324;28;20227;-81
2021/03/06 09:25:31;;;;;;;11.97;11.07;;;7.50;99.90;;;;;;5042338;28;20194;-82
2021/03/06 09:27:58;;;;;;;11.77;10.77;;;7.70;99.90;;;;;;5045441;28;20202;-81
2021/03/06 09:30:26;;;;;;;11.43;10.53;;;7.30;99.90;;;;;;5041606;28;20201;-79
2021/03/06 09:32:53;;;;;;;11.50;10.40;;;7.60;99.90;;;;;;5039351;28;20218;-81
2021/03/06 09:35:20;;;;;;;11.83;10.90;;;7.80;99.90;;;;;;5025493;28;20208;-81
2021/03/06 09:37:47;;;;;;;11.30;10.40;;;7.70;99.90;;;;;;5041166;28;20193;-81
2021/03/06 09:40:22;;;;;;;11.77;10.77;;;7.70;99.90;;;;;;5026451;28;20210;-82
2021/03/06 09:42:50;;;;;;;11.73;10.73;;;7.80;99.90;;;;;;5045205;28;20211;-82
2021/03/06 09:45:17;;;;;;;11.47;10.57;;;7.60;99.90;;;;;;5039689;28;20199;-81
2021/03/06 09:47:43;;;;;;;10.83;9.83;;;7.60;99.90;;;;;;5028081;28;20206;-82
2021/03/06 09:50:12;;;;;;;11.17;10.27;;;7.20;99.90;;;;;;5025778;28;20202;-81
2021/03/06 09:52:38;;;;;;;11.13;10.13;;;6.80;99.90;;;;;;5046887;28;20217;-82
2021/03/06 09:55:17;;;;;;;10.40;9.60;;;6.20;99.90;;;;;;5048197;28;20204;-81
2021/03/06 09:57:44;;;;;;;10.83;9.93;;;6.40;99.90;;;;;;5042225;28;20737;-81
2021/03/06 10:00:22;;;;;;;10.30;9.50;;;6.40;99.90;;;;;;5044181;28;20270;-81
2021/03/06 10:02:50;;;;;;;10.47;9.57;;;6.20;99.90;;;;;;5017835;28;20239;-82
2021/03/06 10:05:21;;;;;;;9.67;8.77;;;6.30;99.90;;;;;;5029767;28;20258;-81
2021/03/06 10:07:49;;;;;;;9.77;8.97;;;6.20;99.90;;;;;;5040723;28;20199;-80
2021/03/06 10:10:16;;;;;;;9.93;9.07;;;6.40;99.90;;;;;;5026443;28;20253;-81
2021/03/06 10:12:45;;;;;;;9.67;8.77;;;6.50;99.90;;;;;;5044065;28;20227;-81
2021/03/06 10:15:13;;;;;;;9.90;9.10;;;6.20;99.90;;;;;;5045719;28;20207;-81
2021/03/06 10:17:40;;;;;;;10.23;9.43;;;5.90;99.90;;;;;;5043400;28;20241;-81
2021/03/06 10:20:07;;;;;;;9.83;9.03;;;6.00;99.90;;;;;;5026495;28;20716;-81
2021/03/06 10:22:44;;;;;;;9.90;9.10;;;5.90;99.90;;;;;;5032418;28;20241;-81
2021/03/06 10:25:12;;;;;;;9.17;8.47;;;5.90;99.90;;;;;;5038173;28;20236;-81
2021/03/06 10:27:39;;;;;;;9.60;8.80;;;6.00;99.90;;;;;;5040241;28;20204;-81
2021/03/06 10:30:15;;;;;;;9.37;8.57;;;5.90;99.90;;;;;;5088141;22;20705;-79
2021/03/06 10:32:43;;;;;;;9.73;8.73;;;5.60;99.90;;;;;;5052540;28;20194;-79
2021/03/06 10:35:31;;;;;;;9.13;8.30;;;5.80;99.90;;;;;;5070711;28;20195;-78
2021/03/06 10:37:58;;;;;;;8.70;8.00;;;5.80;99.90;;;;;;5063663;28;20205;-79
2021/03/06 10:40:40;;;;;;;8.87;8.17;;;5.70;99.90;;;;;;5056524;28;20252;-80
2021/03/06 10:43:06;;;;;;;10.37;9.47;;;5.60;99.90;;;;;;5054868;28;20207;-78
2021/03/06 10:45:33;;;;;;;9.23;8.50;;;5.50;99.90;;;;;;5065703;28;20198;-78
2021/03/06 10:48:01;;;;;;;9.33;8.53;;;5.50;99.90;;;;;;5048047;28;20237;-79
2021/03/06 10:50:30;;;;;;;8.57;7.87;;;5.60;99.90;;;;;;5048222;28;20241;-79
2021/03/06 10:53:11;;;;;;;9.60;8.73;;;5.80;99.90;;;;;;5070908;28;20678;-78
2021/03/06 10:55:38;;;;;;;9.70;8.80;;;5.90;99.90;;;;;;5061808;28;20230;-78
2021/03/06 10:58:04;;;;;;;9.10;8.30;;;5.90;99.90;;;;;;5062005;28;20202;-79
2021/03/06 11:00:31;;;;;;;8.80;7.90;;;6.00;99.90;;;;;;5056473;28;20275;-79
2021/03/06 11:03:00;;;;;;;8.50;7.80;;;5.90;99.90;;;;;;5068472;28;20568;-78
2021/03/06 11:05:27;;;;;;;8.70;7.93;;;5.80;99.90;;;;;;5050707;28;20203;-80
2021/03/06 11:07:54;;;;;;;8.60;7.90;;;5.80;99.90;;;;;;5048298;28;20249;-78
2021/03/06 11:10:22;;;;;;;8.23;7.53;;;5.90;99.90;;;;;;5050165;28;20230;-80
2021/03/06 11:12:54;;;;;;;9.10;8.20;;;5.90;99.90;;;;;;5066064;28;20246;-78
2021/03/06 11:15:23;;;;;;;9.57;8.63;;;5.80;99.80;;;;;;5054653;28;20690;-79
2021/03/06 11:17:52;;;;;;;8.57;7.87;;;5.60;99.90;;;;;;5067023;28;20198;-79
2021/03/06 11:20:19;;;;;;;8.57;7.70;;;5.80;99.90;;;;;;5057958;28;20219;-79
2021/03/06 11:22:46;;;;;;;8.90;8.20;;;5.80;99.90;;;;;;5065795;28;20195;-79
2021/03/06 11:25:14;;;;;;;9.27;8.47;;;5.90;99.90;;;;;;5069210;28;20198;-79
2021/03/06 11:27:45;;;;;;;9.37;8.40;;;5.90;99.90;;;;;;5056858;28;20754;-78
2021/03/06 11:30:12;;;;;;;9.63;8.83;;;5.80;99.90;;;;;;5063395;28;20219;-80
2021/03/06 11:32:39;;;;;;;9.80;8.90;;;5.60;99.90;;;;;;5058113;28;20202;-78
2021/03/06 11:35:06;;;;;;;9.80;9.00;;;5.70;99.90;;;;;;5046512;28;20204;-78
2021/03/06 11:37:34;;;;;;;9.07;8.30;;;5.70;99.90;;;;;;5056226;28;20199;-77
2021/03/06 11:40:00;;;;;;;9.20;8.50;;;5.70;99.90;;;;;;5062076;28;20214;-77
2021/03/06 11:42:26;;;;;;;9.47;8.67;;;5.80;99.90;;;;;;5066311;28;20199;-76
2021/03/06 11:44:53;;;;;;;10.13;9.23;;;5.90;99.90;;;;;;5054950;28;20229;-77
2021/03/06 11:47:19;;;;;;;9.53;8.83;;;6.00;99.90;;;;;;5045447;28;20203;-77
2021/03/06 11:49:45;;;;;;;9.33;8.53;;;5.90;99.90;;;;;;5056852;28;20211;-77
2021/03/06 11:52:12;;;;;;;9.30;8.50;;;5.90;99.90;;;;;;5047742;28;20618;-77
2021/03/06 11:54:39;;;;;;;8.50;7.80;;;6.10;99.90;;;;;;5051821;28;20250;-77
2021/03/06 11:57:06;;;;;;;8.70;7.90;;;6.20;99.90;;;;;;5055927;28;20245;-77
2021/03/06 11:59:32;;;;;;;8.80;8.07;;;6.20;99.90;;;;;;5037385;28;20593;-76
2021/03/06 12:01:58;;;;;;;9.37;8.57;;;6.10;99.90;;;;;;5051798;28;20195;-79
2021/03/06 12:04:25;;;;;;;8.73;7.97;;;6.20;99.90;;;;;;5053274;28;20195;-78
2021/03/06 12:06:51;;;;;;;9.03;8.23;;;6.30;99.90;;;;;;5042808;28;20251;-77
2021/03/06 12:09:17;;;;;;;9.20;8.30;;;6.30;99.90;;;;;;5063930;28;20215;-78
2021/03/06 12:11:45;;;;;;;9.10;8.23;;;6.30;99.40;;;;;;5051037;28;20230;-79
2021/03/06 12:14:11;;;;;;;8.50;7.80;;;6.30;99.10;;;;;;5070315;28;20238;-78
2021/03/06 12:16:37;;;;;;;8.50;7.80;;;6.30;99.00;;;;;;5042011;28;20199;-77
2021/03/06 12:19:04;;;;;;;9.20;7.90;;;6.40;99.80;;;;;;5064589;28;20211;-78
2021/03/06 12:21:31;;;;;;;8.13;7.53;;;6.40;99.10;;;;;;5044607;28;20207;-77
2021/03/06 12:23:58;;;;;;;8.57;7.87;;;6.40;99.50;;;;;;5045040;28;20204;-77
2021/03/06 12:26:25;;;;;;;9.10;8.20;;;6.30;98.50;;;;;;5067912;28;20737;-78
2021/03/06 12:28:52;;;;;;;8.77;7.97;;;6.40;99.90;;;;;;5062277;28;20192;-79
2021/03/06 12:31:19;;;;;;;8.50;7.80;;;6.50;98.90;;;;;;5069346;28;20252;-78
2021/03/06 12:33:45;;;;;;;8.80;7.90;;;6.50;98.60;;;;;;5052167;28;20273;-78
2021/03/06 12:36:12;;;;;;;8.73;7.90;;;6.50;98.50;;;;;;5058895;28;20699;-79
2021/03/06 12:38:39;;;;;;;7.47;6.87;;;6.70;99.20;;;;;;5058877;28;20192;-80
2021/03/06 12:41:05;;;;;;;8.17;7.40;;;6.60;96.00;;;;;;5067347;28;20256;-78
2021/03/06 12:43:32;;;;;;;8.57;7.87;;;6.60;97.30;;;;;;5062165;28;20191;-79
2021/03/06 12:45:59;;;;;;;8.33;7.50;;;6.70;96.30;;;;;;5069290;28;20219;-78